Time;durP1;ratioP1;P1;durP2;ratioP2;P2;SDS_P1;SDS_P2;PMS_P1;PMS_P2;Temp;Humidity;BMP_temperature;BMP_pressure;BME280_temperature;BME280_humidity;BME280_pressure;Samples;Min_cycle;Max_cycle;Signal;HPM_P1;HPM_P2
2022/04/23 00:01:32;;;;;;;11.80;10.50;;;;;;;10.95;76.10;95325.19;5031991;28;20530;-71
2022/04/23 00:03:57;;;;;;;15.70;12.07;;;;;;;10.90;76.12;95325.19;5031646;28;20715;-70
2022/04/23 00:06:23;;;;;;;15.30;11.20;;;;;;;10.81;77.08;95329.41;5032051;28;20190;-71
2022/04/23 00:08:48;;;;;;;16.03;11.33;;;;;;;10.83;77.21;95324.69;5014703;28;20270;-71
2022/04/23 00:11:14;;;;;;;15.33;11.87;;;;;;;10.87;77.19;95319.72;5032080;28;20209;-70
2022/04/23 00:13:39;;;;;;;16.40;11.93;;;;;;;10.72;78.08;95317.88;5032211;28;20183;-70
2022/04/23 00:16:05;;;;;;;12.03;10.77;;;;;;;10.70;78.59;95318.13;5032133;28;20191;-70
2022/04/23 00:18:31;;;;;;;14.00;10.30;;;;;;;10.68;78.97;95325.47;5032294;28;20187;-71
2022/04/23 00:20:56;;;;;;;13.37;11.00;;;;;;;10.55;79.35;95315.50;5032201;28;20587;-71
2022/04/23 00:23:22;;;;;;;14.27;11.00;;;;;;;10.58;79.79;95316.84;5035123;28;20634;-70
2022/04/23 00:25:51;;;;;;;12.57;10.57;;;;;;;10.51;79.92;95321.53;5035754;28;20214;-71
2022/04/23 00:28:17;;;;;;;14.03;11.43;;;;;;;10.35;80.86;95323.38;5035740;28;20521;-71
2022/04/23 00:30:42;;;;;;;13.03;11.30;;;;;;;10.41;81.20;95330.19;5034980;28;20562;-71
2022/04/23 00:33:09;;;;;;;14.13;10.97;;;;;;;10.32;81.24;95329.91;5036155;28;20205;-71
2022/04/23 00:35:36;;;;;;;13.37;10.57;;;;;;;10.34;81.84;95327.03;5035733;28;20214;-70
2022/04/23 00:38:01;;;;;;;12.97;11.00;;;;;;;10.27;82.14;95322.03;5017882;28;20645;-70
2022/04/23 00:40:27;;;;;;;13.13;11.60;;;;;;;10.22;82.63;95337.75;5034601;28;20193;-71
2022/04/23 00:42:55;;;;;;;11.93;10.67;;;;;;;10.39;81.68;95338.31;5035459;28;20228;-70
2022/04/23 00:45:24;;;;;;;12.33;11.03;;;;;;;10.35;82.53;95329.41;5035267;28;20179;-70
2022/04/23 00:47:50;;;;;;;12.50;10.77;;;;;;;10.27;82.56;95334.34;5035073;28;20186;-70
2022/04/23 00:50:21;;;;;;;13.43;10.43;;;;;;;10.27;83.09;95332.53;5017353;28;20206;-70
2022/04/23 00:53:02;;;;;;;12.83;10.70;;;;;;;10.15;84.03;95334.56;5017480;28;20182;-70
2022/04/23 00:55:31;;;;;;;15.87;10.97;;;;;;;10.13;84.65;95328.03;5035220;28;20194;-69
2022/04/23 00:57:58;;;;;;;11.63;10.43;;;;;;;10.09;84.97;95326.94;5034925;28;20216;-70
2022/04/23 01:00:25;;;;;;;11.87;10.53;;;;;;;10.10;85.38;95325.91;5034623;28;20590;-70
2022/04/23 01:02:53;;;;;;;12.10;10.80;;;;;;;9.98;86.09;95334.00;5034694;28;20235;-70
2022/04/23 01:05:19;;;;;;;14.07;10.73;;;;;;;10.11;85.82;95330.91;5035246;28;20171;-70
2022/04/23 01:07:45;;;;;;;12.73;11.13;;;;;;;9.95;87.15;95324.84;5017260;28;20236;-72
2022/04/23 01:10:11;;;;;;;13.30;11.03;;;;;;;9.93;87.33;95331.38;5034765;28;20210;-71
2022/04/23 01:12:38;;;;;;;13.53;10.33;;;;;;;9.86;87.91;95323.00;5034853;28;20194;-71
2022/04/23 01:15:06;;;;;;;13.03;11.63;;;;;;;9.68;89.05;95313.78;5034781;28;20630;-70
2022/04/23 01:17:32;;;;;;;13.43;10.27;;;;;;;9.69;89.20;95317.19;5034695;28;20191;-70
2022/04/23 01:20:03;;;;;;;13.30;11.33;;;;;;;9.64;89.43;95315.31;5035197;28;20194;-70
2022/04/23 01:22:29;;;;;;;13.87;11.07;;;;;;;9.55;90.52;95311.63;5034709;28;20544;-70
2022/04/23 01:24:55;;;;;;;13.17;10.87;;;;;;;9.74;89.59;95312.75;5034387;28;20308;-69
2022/04/23 01:27:25;;;;;;;12.97;11.60;;;;;;;9.56;90.61;95313.19;5034452;28;20270;-70
2022/04/23 01:29:51;;;;;;;12.33;10.83;;;;;;;9.55;90.86;95301.94;5034514;28;20660;-71
2022/04/23 01:32:16;;;;;;;14.23;11.80;;;;;;;9.53;91.41;95311.09;5034487;28;20175;-70
2022/04/23 01:34:42;;;;;;;13.23;11.87;;;;;;;9.55;91.13;95307.19;5034132;28;20249;-70
2022/04/23 01:37:08;;;;;;;12.33;11.00;;;;;;;9.51;91.51;95302.72;5033968;28;20194;-71
2022/04/23 01:39:34;;;;;;;22.57;12.23;;;;;;;9.35;92.54;95304.50;5034055;28;20703;-70
2022/04/23 01:41:59;;;;;;;16.83;13.17;;;;;;;9.40;92.84;95304.50;5033566;28;20217;-71
2022/04/23 01:44:24;;;;;;;14.23;12.70;;;;;;;9.27;93.64;95304.19;5034080;28;20199;-71
2022/04/23 01:46:50;;;;;;;14.07;12.37;;;;;;;9.25;93.92;95312.25;5033547;28;20191;-71
2022/04/23 01:49:15;;;;;;;15.50;13.73;;;;;;;9.24;94.75;95309.94;5033620;28;20182;-71
2022/04/23 01:51:41;;;;;;;15.47;13.40;;;;;;;9.24;94.54;95317.78;5034134;28;20204;-70
2022/04/23 01:54:06;;;;;;;15.30;13.60;;;;;;;9.29;94.16;95313.34;5033908;28;20194;-70
2022/04/23 01:56:31;;;;;;;15.23;13.60;;;;;;;9.08;95.94;95309.81;5033844;28;20190;-71
2022/04/23 01:58:57;;;;;;;16.77;14.70;;;;;;;8.97;97.15;95312.66;5033522;28;20206;-70
2022/04/23 02:01:22;;;;;;;17.87;15.57;;;;;;;9.07;96.54;95320.56;5034121;28;20302;-70
2022/04/23 02:03:47;;;;;;;21.83;15.80;;;;;;;9.09;96.81;95319.25;5033813;28;20293;-70
2022/04/23 02:06:13;;;;;;;18.07;15.27;;;;;;;8.96;98.09;95326.75;5033895;28;20190;-70
2022/04/23 02:08:39;;;;;;;19.23;17.17;;;;;;;8.91;98.46;95317.06;5033456;28;20210;-70
2022/04/23 02:11:04;;;;;;;19.87;16.13;;;;;;;8.97;98.38;95321.25;5033544;28;20198;-70
2022/04/23 02:13:31;;;;;;;19.00;16.97;;;;;;;8.90;99.06;95315.47;5033629;28;20233;-70
2022/04/23 02:15:57;;;;;;;20.87;17.57;;;;;;;8.91;99.29;95322.28;5033631;28;20195;-71
2022/04/23 02:18:23;;;;;;;19.17;17.03;;;;;;;8.93;99.89;95317.59;5033919;28;20187;-70
2022/04/23 02:20:48;;;;;;;20.27;17.53;;;;;;;9.05;98.89;95320.78;5033516;28;20190;-71
2022/04/23 02:23:14;;;;;;;18.53;16.53;;;;;;;9.10;98.23;95322.66;5033293;28;20224;-72
2022/04/23 02:25:39;;;;;;;20.13;17.83;;;;;;;8.86;100.00;95314.41;5033373;28;20187;-71
2022/04/23 02:28:05;;;;;;;19.77;16.90;;;;;;;8.83;100.00;95314.91;5033101;28;20186;-70
2022/04/23 02:30:32;;;;;;;23.13;19.07;;;;;;;8.81;100.00;95309.13;5032969;28;20665;-71
2022/04/23 02:32:58;;;;;;;19.77;17.37;;;;;;;8.76;100.00;95307.28;5033401;28;20325;-70
2022/04/23 02:35:23;;;;;;;20.97;18.40;;;;;;;8.81;100.00;95316.97;5015716;28;20261;-70
2022/04/23 02:37:53;;;;;;;25.40;19.47;;;;;;;8.77;100.00;95306.25;5033311;28;20582;-69
2022/04/23 02:40:19;;;;;;;21.43;18.53;;;;;;;8.79;100.00;95308.63;5032375;28;20182;-71
2022/04/23 02:42:45;;;;;;;19.97;17.77;;;;;;;8.74;100.00;95308.59;5032842;28;20186;-71
2022/04/23 02:45:15;;;;;;;21.07;18.30;;;;;;;8.66;100.00;95307.22;5032264;28;20543;-71
2022/04/23 02:47:44;;;;;;;20.17;17.90;;;;;;;8.66;100.00;95302.00;5015486;28;20656;-69
2022/04/23 02:50:10;;;;;;;21.33;19.03;;;;;;;8.49;100.00;95306.56;5033168;28;20656;-71
2022/04/23 02:52:36;;;;;;;23.17;20.03;;;;;;;8.48;100.00;95306.81;5015257;28;20193;-71
2022/04/23 02:55:01;;;;;;;23.97;19.30;;;;;;;8.62;100.00;95311.38;5033213;28;20613;-71
2022/04/23 02:57:27;;;;;;;22.97;20.47;;;;;;;8.55;100.00;95315.22;5032687;28;20183;-70
2022/04/23 02:59:52;;;;;;;19.97;17.83;;;;;;;8.58;100.00;95302.44;5032866;28;20182;-69
2022/04/23 03:02:17;;;;;;;22.93;20.00;;;;;;;8.56;100.00;95316.81;5032612;28;20298;-70
2022/04/23 03:04:43;;;;;;;23.03;19.40;;;;;;;8.51;100.00;95316.78;5032236;28;20228;-70
2022/04/23 03:07:10;;;;;;;22.83;20.00;;;;;;;8.56;100.00;95314.97;5032634;28;20687;-71
2022/04/23 03:09:36;;;;;;;21.10;18.80;;;;;;;8.65;100.00;95310.88;5032586;28;20609;-70
2022/04/23 03:12:02;;;;;;;22.33;19.93;;;;;;;8.66;100.00;95314.25;5032657;28;20203;-68
2022/04/23 03:14:27;;;;;;;21.57;19.27;;;;;;;8.57;100.00;95319.19;5015362;28;20656;-70
2022/04/23 03:16:52;;;;;;;23.03;18.53;;;;;;;8.59;100.00;95318.91;5032961;28;20190;-71
2022/04/23 03:19:18;;;;;;;21.37;19.07;;;;;;;8.69;100.00;95317.16;5032539;28;20190;-71
2022/04/23 03:21:43;;;;;;;21.47;19.17;;;;;;;8.64;100.00;95311.91;5032549;28;20186;-71
2022/04/23 03:24:09;;;;;;;22.13;19.73;;;;;;;8.62;100.00;95310.59;5032448;28;20559;-70
2022/04/23 03:26:34;;;;;;;23.53;20.20;;;;;;;8.65;100.00;95308.25;5032464;28;20183;-71
2022/04/23 03:28:59;;;;;;;22.87;19.67;;;;;;;8.58;100.00;95312.13;5032541;28;20213;-71
2022/04/23 03:31:25;;;;;;;23.27;20.03;;;;;;;8.55;100.00;95312.63;5032323;28;20206;-69
2022/04/23 03:33:50;;;;;;;21.80;18.73;;;;;;;8.47;100.00;95306.00;5032726;28;20665;-71
2022/04/23 03:36:17;;;;;;;20.07;17.83;;;;;;;8.30;100.00;95313.97;5032419;28;20190;-71
2022/04/23 03:38:43;;;;;;;26.20;21.27;;;;;;;8.27;100.00;95309.22;5032490;28;20212;-71
2022/04/23 03:41:08;;;;;;;23.77;19.57;;;;;;;8.32;100.00;95311.13;5031991;28;20297;-71
2022/04/23 03:43:34;;;;;;;23.20;20.80;;;;;;;8.34;100.00;95314.28;5032458;28;20186;-71
2022/04/23 03:45:59;;;;;;;21.33;19.10;;;;;;;8.30;100.00;95313.97;5032591;28;20202;-69
2022/04/23 03:48:25;;;;;;;21.77;19.43;;;;;;;8.13;100.00;95308.06;5032659;28;20544;-70
2022/04/23 03:50:50;;;;;;;24.80;18.73;;;;;;;8.24;100.00;95304.53;5032742;28;20230;-69
2022/04/23 03:53:16;;;;;;;23.47;20.37;;;;;;;8.21;100.00;95301.59;5014389;28;20543;-70
2022/04/23 03:55:41;;;;;;;23.60;19.70;;;;;;;8.12;100.00;95295.25;5015130;28;20190;-69
2022/04/23 03:58:07;;;;;;;22.10;19.80;;;;;;;7.98;100.00;95300.09;5036219;28;20316;-71
2022/04/23 04:00:34;;;;;;;23.83;19.07;;;;;;;8.10;100.00;95300.72;5018476;28;20273;-69
2022/04/23 04:02:59;;;;;;;21.90;19.17;;;;;;;8.08;100.00;95302.78;5036161;28;20226;-71
2022/04/23 04:05:25;;;;;;;22.83;18.80;;;;;;;8.13;100.00;95299.47;5018115;28;20202;-68
2022/04/23 04:07:51;;;;;;;23.50;19.57;;;;;;;8.10;100.00;95303.34;5035440;28;20194;-71
2022/04/23 04:10:18;;;;;;;24.90;19.53;;;;;;;8.17;100.00;95303.13;5018078;28;20272;-70
2022/04/23 04:12:44;;;;;;;21.87;18.73;;;;;;;8.15;100.00;95303.38;5035839;28;20191;-70
2022/04/23 04:15:12;;;;;;;23.20;19.40;;;;;;;7.97;100.00;95292.53;5036026;28;20186;-70
2022/04/23 04:17:38;;;;;;;20.97;18.70;;;;;;;8.07;100.00;95303.03;5035526;28;20266;-72
2022/04/23 04:20:08;;;;;;;21.97;18.47;;;;;;;8.11;100.00;95294.47;5035793;28;20228;-70
2022/04/23 04:22:34;;;;;;;22.90;19.33;;;;;;;8.13;100.00;95289.81;5035311;28;20266;-70
2022/04/23 04:25:02;;;;;;;20.73;18.53;;;;;;;8.19;100.00;95301.84;5035530;28;20187;-70
2022/04/23 04:27:27;;;;;;;21.67;18.40;;;;;;;8.08;100.00;95300.16;5035713;28;20179;-71
2022/04/23 04:29:53;;;;;;;23.60;18.83;;;;;;;8.19;100.00;95298.47;5035708;28;20190;-70
2022/04/23 04:32:19;;;;;;;20.93;17.87;;;;;;;8.17;100.00;95295.31;5035256;28;20190;-71
2022/04/23 04:34:44;;;;;;;20.40;18.20;;;;;;;8.13;100.00;95300.25;5035582;28;20202;-70
2022/04/23 04:37:12;;;;;;;20.77;18.20;;;;;;;8.31;100.00;95302.50;5034975;28;20518;-71
2022/04/23 04:39:40;;;;;;;20.10;17.70;;;;;;;8.26;100.00;95301.63;5035462;28;20588;-70
2022/04/23 04:42:07;;;;;;;19.47;17.40;;;;;;;8.24;100.00;95308.94;5035221;28;20186;-71
2022/04/23 04:44:35;;;;;;;19.50;16.33;;;;;;;8.29;100.00;95309.78;5017364;28;20191;-71
2022/04/23 04:47:00;;;;;;;20.60;16.60;;;;;;;8.33;100.00;95307.47;5034845;28;20248;-71
2022/04/23 04:49:25;;;;;;;18.83;16.07;;;;;;;8.39;100.00;95309.09;5035605;28;20191;-71
2022/04/23 04:51:52;;;;;;;17.53;15.03;;;;;;;8.52;100.00;95311.31;5035702;28;20202;-71
2022/04/23 04:54:18;;;;;;;19.83;16.00;;;;;;;8.60;100.00;95304.81;5035626;28;20282;-70
2022/04/23 04:56:50;;;;;;;19.43;16.73;;;;;;;8.37;100.00;95316.38;5035174;28;20265;-71
2022/04/23 04:59:16;;;;;;;19.47;15.40;;;;;;;8.40;100.00;95310.69;5035563;28;20256;-70
2022/04/23 05:01:42;;;;;;;17.93;15.43;;;;;;;8.53;100.00;95320.69;5035151;28;20657;-70
2022/04/23 05:04:07;;;;;;;18.07;15.80;;;;;;;8.46;100.00;95316.72;5034943;28;20229;-71
2022/04/23 05:06:33;;;;;;;17.47;15.57;;;;;;;8.46;100.00;95314.91;5035044;28;20693;-70
2022/04/23 05:08:58;;;;;;;16.97;14.63;;;;;;;8.64;100.00;95324.16;5016994;28;20598;-70
2022/04/23 05:11:24;;;;;;;17.10;15.10;;;;;;;8.54;100.00;95324.88;5034420;28;20281;-71
2022/04/23 05:13:50;;;;;;;16.70;14.47;;;;;;;8.44;100.00;95319.59;5034851;28;20668;-70
2022/04/23 05:16:15;;;;;;;16.07;14.37;;;;;;;8.62;100.00;95323.66;5034633;28;20179;-70
2022/04/23 05:18:41;;;;;;;16.90;15.10;;;;;;;8.61;100.00;95325.47;5034884;28;20190;-70
2022/04/23 05:21:06;;;;;;;15.90;14.03;;;;;;;8.59;100.00;95327.53;5034557;28;20612;-72
2022/04/23 05:23:32;;;;;;;17.53;15.50;;;;;;;8.70;100.00;95323.97;5034270;28;20714;-71
2022/04/23 05:25:58;;;;;;;17.57;15.43;;;;;;;8.67;100.00;95326.28;5016540;28;20312;-70
2022/04/23 05:28:23;;;;;;;17.57;15.17;;;;;;;8.84;100.00;95326.16;5035053;28;20187;-70
2022/04/23 05:30:49;;;;;;;16.60;14.80;;;;;;;8.86;99.96;95331.91;5014220;28;20207;-70
2022/04/23 05:33:15;;;;;;;15.47;13.80;;;;;;;8.92;99.42;95341.34;5033422;28;20199;-72
2022/04/23 05:35:41;;;;;;;15.17;13.47;;;;;;;8.69;99.91;95343.28;5034103;28;20206;-70
2022/04/23 05:38:06;;;;;;;15.30;13.67;;;;;;;8.78;99.43;95343.63;5033353;28;20187;-70
2022/04/23 05:40:32;;;;;;;15.57;13.97;;;;;;;8.65;100.00;95350.03;5034216;28;20194;-71
2022/04/23 05:42:58;;;;;;;14.30;12.80;;;;;;;8.58;99.78;95349.44;5034149;28;20218;-73
2022/04/23 05:45:28;;;;;;;15.20;13.57;;;;;;;8.65;99.66;95350.03;5034127;28;20191;-73
2022/04/23 05:47:54;;;;;;;15.67;13.80;;;;;;;8.79;98.87;95352.25;5016862;28;20183;-71
2022/04/23 05:50:20;;;;;;;13.97;12.53;;;;;;;9.00;97.46;95346.91;5033954;28;20661;-71
2022/04/23 05:52:46;;;;;;;14.27;12.80;;;;;;;8.75;98.40;95352.72;5034098;28;20198;-71
2022/04/23 05:55:12;;;;;;;13.60;11.97;;;;;;;8.86;98.24;95356.19;5016623;28;20191;-72
2022/04/23 05:57:38;;;;;;;14.40;12.90;;;;;;;8.76;98.29;95353.50;5033911;28;20189;-71
2022/04/23 06:00:06;;;;;;;18.00;12.87;;;;;;;8.85;97.67;95359.09;5034092;28;20186;-71
2022/04/23 06:02:31;;;;;;;15.63;13.93;;;;;;;9.05;96.09;95352.16;5033872;28;20189;-71
2022/04/23 06:04:57;;;;;;;14.30;12.67;;;;;;;8.96;96.78;95358.91;5034209;28;20572;-72
2022/04/23 06:07:23;;;;;;;14.43;12.30;;;;;;;9.04;96.40;95365.47;5033878;28;20190;-70
2022/04/23 06:09:48;;;;;;;13.90;12.40;;;;;;;9.08;96.04;95367.31;5033467;28;20602;-71
2022/04/23 06:12:13;;;;;;;13.90;12.40;;;;;;;8.86;96.83;95376.34;5033720;28;20190;-71
2022/04/23 06:14:39;;;;;;;15.27;12.83;;;;;;;8.87;96.93;95376.06;5033354;28;20266;-71
2022/04/23 06:17:10;;;;;;;14.90;12.60;;;;;;;8.91;96.07;95371.16;5033716;28;20604;-71
2022/04/23 06:19:36;;;;;;;15.70;12.13;;;;;;;8.83;95.90;95371.59;5014980;28;20541;-71
2022/04/23 06:22:01;;;;;;;13.63;12.20;;;;;;;9.29;93.89;95385.75;5033934;28;20186;-73
2022/04/23 06:24:27;;;;;;;14.23;12.47;;;;;;;9.30;93.72;95377.69;5033288;28;20195;-72
2022/04/23 06:26:52;;;;;;;13.23;11.83;;;;;;;9.31;92.72;95379.22;5015798;28;20186;-73
2022/04/23 06:29:18;;;;;;;12.63;11.33;;;;;;;9.31;92.66;95381.84;5033373;28;20194;-73
2022/04/23 06:31:43;;;;;;;11.97;10.77;;;;;;;9.42;91.95;95382.69;5033234;28;20680;-72
2022/04/23 06:34:09;;;;;;;12.20;11.00;;;;;;;9.42;92.31;95380.06;5033582;28;20684;-72
2022/04/23 06:36:36;;;;;;;12.10;10.40;;;;;;;9.49;91.35;95391.09;5032971;28;20206;-71
2022/04/23 06:39:02;;;;;;;12.17;10.73;;;;;;;9.42;91.11;95387.91;5033601;28;20297;-72
2022/04/23 06:41:28;;;;;;;17.73;10.70;;;;;;;9.33;91.36;95385.00;5033363;28;20229;-73
2022/04/23 06:43:53;;;;;;;11.17;10.10;;;;;;;9.39;91.90;95386.59;5033235;28;20703;-72
2022/04/23 06:46:18;;;;;;;11.63;10.27;;;;;;;9.37;91.28;95393.91;5032779;28;20174;-71
2022/04/23 06:48:44;;;;;;;11.33;10.13;;;;;;;9.37;91.53;95398.34;5033539;28;20182;-73
2022/04/23 06:51:09;;;;;;;11.03;9.93;;;;;;;9.25;91.41;95395.16;5032941;28;20668;-70
2022/04/23 06:53:34;;;;;;;12.00;10.33;;;;;;;9.09;91.66;95399.47;5015173;28;20664;-72
2022/04/23 06:56:01;;;;;;;10.03;8.97;;;;;;;9.36;90.98;95399.41;5032541;28;20194;-72
2022/04/23 06:58:26;;;;;;;9.97;9.07;;;;;;;9.85;88.80;95386.84;5033038;28;20187;-72
2022/04/23 07:00:52;;;;;;;10.20;9.17;;;;;;;9.49;89.29;95384.03;5032884;28;20185;-72
2022/04/23 07:03:18;;;;;;;10.33;9.20;;;;;;;9.34;89.53;95393.63;5032418;28;20621;-72
2022/04/23 07:05:43;;;;;;;11.30;9.13;;;;;;;9.36;89.70;95388.97;5032591;28;20324;-71
2022/04/23 07:08:09;;;;;;;10.90;9.53;;;;;;;9.38;89.43;95392.88;5032055;28;20186;-71
2022/04/23 07:10:34;;;;;;;10.47;9.13;;;;;;;9.74;87.94;95398.31;5014383;28;20202;-73
2022/04/23 07:13:00;;;;;;;10.77;9.60;;;;;;;9.83;87.61;95392.31;5015241;28;20180;-70
2022/04/23 07:15:28;;;;;;;10.37;9.37;;;;;;;9.78;87.46;95396.75;5032336;28;20610;-71
2022/04/23 07:17:53;;;;;;;10.97;9.80;;;;;;;9.54;89.04;95397.16;5032882;28;20190;-72
2022/04/23 07:20:19;;;;;;;9.67;8.67;;;;;;;9.85;87.36;95402.53;5032252;28;20178;-72
2022/04/23 07:25:29;;;;;;;9.90;8.90;;;;;;;9.78;86.66;95392.28;5032479;28;20183;-72
2022/04/23 07:27:55;;;;;;;10.73;9.63;;;;;;;9.77;86.96;95406.41;5032146;28;20283;-73
2022/04/23 07:30:21;;;;;;;10.33;9.00;;;;;;;9.77;86.61;95401.19;5031953;28;20198;-72
2022/04/23 07:32:46;;;;;;;10.97;9.60;;;;;;;9.79;86.69;95399.13;5036485;28;20700;-72
2022/04/23 07:37:56;;;;;;;10.40;9.23;;;;;;;10.18;85.17;95404.78;5020350;28;20177;-72
2022/04/23 07:40:22;;;;;;;10.43;8.50;;;;;;;10.29;84.01;95398.53;5036644;28;20183;-72
2022/04/23 07:42:48;;;;;;;9.77;8.73;;;;;;;10.55;82.32;95398.56;5036880;28;20658;-71
2022/04/23 07:45:13;;;;;;;9.73;8.47;;;;;;;10.42;82.21;95390.16;5036351;28;20197;-71
2022/04/23 07:47:39;;;;;;;11.47;9.47;;;;;;;10.15;82.78;95402.63;5035768;28;20272;-72
2022/04/23 07:50:04;;;;;;;10.20;8.30;;;;;;;10.11;83.72;95398.97;5036447;28;20284;-72
2022/04/23 07:52:31;;;;;;;10.20;8.67;;;;;;;10.25;83.47;95399.31;5036244;28;20179;-71
2022/04/23 07:54:56;;;;;;;9.07;8.13;;;;;;;10.57;81.66;95401.72;5036020;28;20198;-71
2022/04/23 07:57:23;;;;;;;10.23;8.10;;;;;;;10.61;81.52;95402.75;5035968;28;20274;-71
2022/04/23 07:59:49;;;;;;;9.40;8.40;;;;;;;10.89;80.37;95398.84;5035575;28;20185;-71
2022/04/23 08:02:15;;;;;;;10.60;8.50;;;;;;;10.80;80.51;95396.78;5036186;28;20186;-71
2022/04/23 08:04:41;;;;;;;10.50;8.53;;;;;;;10.83;80.35;95403.31;5034530;28;20317;-72
2022/04/23 08:07:06;;;;;;;9.83;8.03;;;;;;;10.88;79.42;95400.69;5033523;28;20711;-70
2022/04/23 08:09:39;;;;;;;9.30;8.40;;;;;;;10.95;79.33;95403.03;5035334;28;20182;-71
2022/04/23 08:12:08;;;;;;;9.67;8.43;;;;;;;10.79;79.25;95404.88;5019911;28;20191;-72
2022/04/23 08:14:34;;;;;;;10.63;8.03;;;;;;;11.24;77.94;95407.50;5034008;28;20187;-71
2022/04/23 08:16:59;;;;;;;9.63;8.07;;;;;;;11.08;78.45;95407.78;5035292;28;20712;-71
2022/04/23 08:19:25;;;;;;;9.87;8.23;;;;;;;10.52;80.65;95402.50;5017627;28;20664;-71
2022/04/23 08:21:51;;;;;;;9.60;8.23;;;;;;;10.79;79.49;95410.13;5035779;28;20191;-72
2022/04/23 08:24:16;;;;;;;9.53;8.27;;;;;;;10.83;79.76;95395.44;5017630;28;20179;-73
2022/04/23 08:26:42;;;;;;;10.00;8.53;;;;;;;10.63;79.86;95409.31;5017785;28;20229;-72
2022/04/23 08:31:52;;;;;;;9.90;8.90;;;;;;;11.05;77.31;95411.69;5032806;28;20312;-73
2022/04/23 08:34:18;;;;;;;9.00;8.10;;;;;;;10.94;78.38;95407.50;5032683;28;20244;-72
2022/04/23 08:36:43;;;;;;;10.10;9.10;;;;;;;10.63;79.90;95405.91;5033128;28;20178;-71
2022/04/23 08:39:08;;;;;;;10.37;8.83;;;;;;;10.90;78.43;95411.69;5034727;28;20198;-72
2022/04/23 08:41:35;;;;;;;10.33;8.73;;;;;;;10.81;79.56;95400.94;5035604;28;20193;-71
2022/04/23 08:44:05;;;;;;;12.53;9.80;;;;;;;10.74;79.65;95407.50;5034199;28;20209;-71
2022/04/23 08:46:34;;;;;;;10.30;9.20;;;;;;;10.79;79.19;95410.13;5017646;28;20262;-71
2022/04/23 08:49:08;;;;;;;11.20;8.83;;;;;;;11.11;79.34;95409.84;5035504;28;20183;-72
2022/04/23 08:51:34;;;;;;;11.20;8.97;;;;;;;11.50;76.39;95399.56;5035108;28;20206;-69
2022/04/23 08:54:05;;;;;;;9.93;8.73;;;;;;;11.06;77.95;95399.38;5034827;28;20251;-71
2022/04/23 08:56:31;;;;;;;9.93;7.60;;;;;;;11.70;87.21;95399.53;5035459;28;20167;-72
2022/04/23 08:58:57;;;;;;;10.43;9.33;;;;;;;11.66;75.36;95398.47;5034925;28;20248;-69
2022/04/23 09:01:22;;;;;;;10.43;9.17;;;;;;;11.63;75.94;95393.78;5035219;28;20195;-70
2022/04/23 09:03:48;;;;;;;10.80;9.33;;;;;;;11.41;75.97;95395.94;5012893;28;20326;-70
2022/04/23 09:06:15;;;;;;;10.37;8.70;;;;;;;10.91;78.23;95391.53;5015003;28;20308;-70
2022/04/23 09:09:06;;;;;;;10.10;8.97;;;;;;;11.23;77.00;95399.88;5015252;28;20697;-71
2022/04/23 09:11:35;;;;;;;13.40;9.87;;;;;;;11.47;76.63;95394.88;5014853;28;20196;-72
2022/04/23 09:14:06;;;;;;;11.30;8.83;;;;;;;11.95;74.51;95396.84;5014836;28;20183;-72
2022/04/23 09:25:49;;;;;;;9.53;8.03;;;;;;;11.68;74.05;95399.78;5014958;28;20657;-73
2022/04/23 09:28:28;;;;;;;10.17;8.03;;;;;;;12.30;72.81;95392.47;5007171;28;20674;-72
2022/04/23 09:30:55;;;;;;;10.00;8.50;;;;;;;12.89;70.18;95398.41;5015429;28;20215;-72
2022/04/23 09:33:30;;;;;;;8.97;7.80;;;;;;;12.54;70.70;95385.50;5009387;28;20218;-72
2022/04/23 09:36:03;;;;;;;9.90;8.30;;;;;;;13.15;68.46;95387.72;5012137;28;20168;-73
2022/04/23 09:38:30;;;;;;;8.87;7.60;;;;;;;12.73;69.30;95394.31;5015014;28;20187;-70
2022/04/23 09:41:15;;;;;;;8.77;7.60;;;;;;;12.31;69.89;95399.31;5013073;28;20241;-71
2022/04/23 09:43:42;;;;;;;8.33;7.47;;;;;;;12.48;71.37;95392.63;5012903;28;20229;-70
2022/04/23 09:46:08;;;;;;;8.33;7.47;;;;;;;12.84;69.46;95395.00;5014313;28;20362;-71
2022/04/23 09:48:38;;;;;;;8.20;6.90;;;;;;;12.69;69.30;95385.41;5014867;28;20221;-70
2022/04/23 09:51:04;;;;;;;9.87;7.77;;;;;;;12.98;68.51;95388.09;5014544;28;20214;-70
2022/04/23 09:53:29;;;;;;;7.40;6.63;;;;;;;13.25;67.44;95388.41;5012713;28;20191;-72
2022/04/23 09:55:59;;;;;;;8.70;7.10;;;;;;;13.26;66.97;95394.44;5014230;28;20198;-74
2022/04/23 09:58:29;;;;;;;9.50;6.80;;;;;;;12.92;68.26;95389.19;5014531;28;20243;-72
2022/04/23 10:00:56;;;;;;;7.67;6.73;;;;;;;13.00;67.76;95387.78;5013763;28;20273;-72
2022/04/23 10:03:27;;;;;;;7.80;6.53;;;;;;;12.59;68.94;95384.69;5020740;28;20692;-72
2022/04/23 10:05:54;;;;;;;7.50;6.07;;;;;;;12.41;69.41;95388.75;5033663;28;20270;-71
2022/04/23 10:08:27;;;;;;;7.10;5.97;;;;;;;12.31;70.07;95386.97;5033375;28;20653;-71
2022/04/23 10:11:12;;;;;;;6.80;6.10;;;;;;;12.49;68.58;95388.16;5033568;28;20198;-71
2022/04/23 10:13:44;;;;;;;8.20;6.23;;;;;;;12.76;68.51;95382.47;5025077;28;20190;-69
2022/04/23 10:16:10;;;;;;;8.37;6.03;;;;;;;12.56;67.86;95372.09;5032911;28;20221;-70
2022/04/23 10:18:38;;;;;;;7.23;6.37;;;;;;;12.52;68.99;95381.56;5033093;28;20230;-71
2022/04/23 10:21:08;;;;;;;7.17;6.20;;;;;;;13.03;67.60;95384.63;5032716;28;20191;-69
2022/04/23 10:23:59;;;;;;;7.00;6.30;;;;;;;13.26;65.81;95379.41;5033256;28;20179;-71
2022/04/23 10:26:39;;;;;;;9.10;6.00;;;;;;;13.52;65.14;95381.81;5015683;28;20186;-69
2022/04/23 10:29:09;;;;;;;7.67;6.00;;;;;;;13.44;65.76;95383.19;5015778;28;20668;-70
2022/04/23 10:31:35;;;;;;;7.10;6.40;;;;;;;13.41;65.65;95383.78;5030691;28;20351;-70
2022/04/23 10:34:00;;;;;;;8.93;7.00;;;;;;;13.29;66.00;95383.34;5032064;28;20274;-69
2022/04/23 10:36:27;;;;;;;7.37;6.47;;;;;;;13.50;65.66;95381.31;5032348;28;20205;-70
2022/04/23 10:39:19;;;;;;;8.33;6.77;;;;;;;13.67;65.19;95369.28;5032999;28;20198;-70
2022/04/23 10:41:44;;;;;;;8.53;6.73;;;;;;;13.29;66.48;95370.19;5032878;28;20244;-71
2022/04/23 10:44:11;;;;;;;8.43;6.87;;;;;;;13.56;65.94;95369.66;5032527;28;20199;-69
2022/04/23 10:46:45;;;;;;;10.03;7.53;;;;;;;13.94;64.25;95363.44;5033145;28;20672;-71
2022/04/23 10:49:15;;;;;;;10.43;6.97;;;;;;;13.76;64.49;95363.41;5032659;28;20182;-70
2022/04/23 10:51:54;;;;;;;7.37;6.60;;;;;;;13.83;64.12;95364.63;5032811;28;20225;-71
2022/04/23 10:54:21;;;;;;;9.33;7.30;;;;;;;13.58;64.60;95365.69;5032592;28;20178;-71
2022/04/23 10:56:53;;;;;;;10.03;7.80;;;;;;;13.48;65.34;95365.03;5032485;28;20189;-69
2022/04/23 10:59:42;;;;;;;9.90;7.70;;;;;;;12.98;66.33;95361.78;5032571;28;20182;-70
2022/04/23 11:02:30;;;;;;;9.53;7.73;;;;;;;13.43;65.51;95365.84;5019671;28;20273;-70
2022/04/23 11:13:27;;;;;;;9.63;7.03;;;;;;;13.49;66.03;95366.56;4992508;28;20199;-71
2022/04/23 11:16:16;;;;;;;10.50;7.80;;;;;;;13.67;65.05;95360.59;4992304;28;20631;-71
2022/04/23 11:18:43;;;;;;;9.17;7.57;;;;;;;13.98;63.92;95358.41;4993006;28;20176;-70
2022/04/23 11:21:34;;;;;;;9.70;7.47;;;;;;;14.38;63.04;95359.72;4993769;28;20199;-70
2022/04/23 11:24:01;;;;;;;8.37;7.37;;;;;;;13.84;63.92;95360.91;4992335;28;20196;-70
2022/04/23 11:26:42;;;;;;;11.10;7.20;;;;;;;13.86;63.73;95352.75;4992858;28;20623;-70
2022/04/23 11:29:08;;;;;;;8.43;6.83;;;;;;;14.01;63.34;95352.53;4993054;28;20196;-70
2022/04/23 11:31:34;;;;;;;9.57;7.23;;;;;;;13.90;63.51;95349.25;4992113;28;20697;-70
2022/04/23 11:34:01;;;;;;;8.50;7.60;;;;;;;13.75;64.50;95352.09;4992780;28;20175;-69
2022/04/23 11:36:34;;;;;;;7.93;7.13;;;;;;;13.77;64.23;95352.56;4992726;28;20187;-72
2022/04/23 11:39:09;;;;;;;10.97;7.93;;;;;;;13.98;63.43;95343.38;4992632;28;20187;-71
2022/04/23 11:41:39;;;;;;;7.73;6.70;;;;;;;13.54;64.72;95351.50;4991476;28;20650;-70
2022/04/23 11:44:11;;;;;;;10.47;7.30;;;;;;;14.24;63.44;95335.91;4991703;28;20192;-74
2022/04/23 11:46:51;;;;;;;10.43;7.60;;;;;;;14.26;62.88;95341.69;4993471;28;20184;-74
2022/04/23 11:49:31;;;;;;;9.27;6.90;;;;;;;14.53;62.66;95344.47;4993510;28;20180;-74
2022/04/23 11:52:07;;;;;;;9.37;6.83;;;;;;;14.30;62.48;95337.41;4993209;28;20203;-73